Time;durP1;ratioP1;P1;durP2;ratioP2;P2;SDS_P1;SDS_P2;PMS_P1;PMS_P2;Temp;Humidity;BMP_temperature;BMP_pressure;BME280_temperature;BME280_humidity;BME280_pressure;Samples;Min_cycle;Max_cycle;Signal;HPM_P1;HPM_P2
2021/12/31 00:02:17;;;;;;;;;;;;;;;;;;4999133;28;20890;-82
2021/12/31 00:04:43;;;;;;;12.80;5.55;;;;;;;;;;5003824;28;20707;-82
2021/12/31 00:07:10;;;;;;;11.75;4.82;;;;;;;;;;4996238;28;20024;-81
2021/12/31 00:09:36;;;;;;;;;;;;;;;;;;5001259;28;20490;-81
2021/12/31 00:12:05;;;;;;;11.07;4.80;;;;;;;;;;5000416;28;19917;-81
2021/12/31 00:14:31;;;;;;;10.57;4.20;;;;;;;;;;5001916;28;20029;-81
2021/12/31 00:16:58;;;;;;;11.57;4.80;;;;;;;;;;4998319;28;20025;-80
2021/12/31 00:19:26;;;;;;;10.75;4.43;;;;;;;;;;5001905;28;20132;-81
2021/12/31 00:21:53;;;;;;;10.98;4.88;;;;;;;;;;4993871;28;20037;-80
2021/12/31 00:24:19;;;;;;;10.32;4.63;;;;;;;;;;5001054;28;20033;-82
2021/12/31 00:26:45;;;;;;;10.68;4.95;;;;;;;;;;5001091;28;20065;-80
2021/12/31 00:29:11;;;;;;;10.23;4.93;;;;;;;;;;4996454;28;20037;-80
2021/12/31 00:31:37;;;;;;;10.52;4.80;;;;;;;;;;5002845;28;20803;-80
2021/12/31 00:34:03;;;;;;;12.90;5.53;;;;;;;;;;4996441;28;20061;-80
2021/12/31 00:36:40;;;;;;;11.48;5.18;;;;;;;;;;5002389;28;20042;-81
2021/12/31 00:39:06;;;;;;;14.05;6.03;;;;;;;;;;5013768;28;20025;-81
2021/12/31 00:41:33;;;;;;;11.57;5.22;;;;;;;;;;5001997;28;20171;-81
2021/12/31 00:43:59;;;;;;;10.15;4.57;;;;;;;;;;5000136;28;20029;-81
2021/12/31 00:46:25;;;;;;;;;;;;;;;;;;5002711;28;20040;-81
2021/12/31 00:48:51;;;;;;;11.23;4.68;;;;;;;;;;4996073;28;19917;-80
2021/12/31 00:51:17;;;;;;;9.65;3.95;;;;;;;;;;4996825;28;20029;-80
2021/12/31 00:53:44;;;;;;;10.95;4.75;;;;;;;;;;5001543;28;20037;-83
2021/12/31 00:56:10;;;;;;;12.40;4.78;;;;;;;;;;4995854;28;20030;-82
2021/12/31 00:58:36;;;;;;;11.13;4.63;;;;;;;;;;5005366;28;20025;-80
2021/12/31 01:01:02;;;;;;;12.52;4.88;;;;;;;;;;5005897;28;20051;-83
2021/12/31 01:03:28;;;;;;;11.35;4.57;;;;;;;;;;5011964;28;20552;-80
2021/12/31 01:05:55;;;;;;;12.00;5.18;;;;;;;;;;5005785;28;20030;-79
2021/12/31 01:08:21;;;;;;;;;;;;;;;;;;5007305;28;21016;-83
2021/12/31 01:10:47;;;;;;;12.45;5.53;;;;;;;;;;5010496;28;20016;-80
2021/12/31 01:13:23;;;;;;;11.60;5.78;;;;;;;;;;5001340;28;20031;-80
2021/12/31 01:15:56;;;;;;;12.38;5.93;;;;;;;;;;5002935;28;20018;-80
2021/12/31 01:19:43;;;;;;;13.20;6.68;;;;;;;;;;5002496;28;20119;-80
2021/12/31 01:21:09;;;;;;;13.32;6.65;;;;;;;;;;4998604;28;20495;-82
2021/12/31 01:23:35;;;;;;;15.55;7.90;;;;;;;;;;5005074;28;20392;-82
2021/12/31 01:26:01;;;;;;;14.30;7.50;;;;;;;;;;5017654;28;20612;-79
2021/12/31 01:28:30;;;;;;;;;;;;;;;;;;5003406;28;20026;-80
2021/12/31 01:30:56;;;;;;;13.43;7.18;;;;;;;;;;4998023;28;19917;-80
2021/12/31 01:33:22;;;;;;;14.68;7.00;;;;;;;;;;4997989;28;20063;-83
2021/12/31 01:35:49;;;;;;;12.57;6.70;;;;;;;;;;5001106;28;20090;-82
2021/12/31 01:38:16;;;;;;;12.40;6.40;;;;;;;;;;5001595;28;20040;-81
2021/12/31 01:40:42;;;;;;;11.45;5.65;;;;;;;;;;5013549;28;20885;-81
2021/12/31 01:43:10;;;;;;;12.43;5.72;;;;;;;;;;5001144;28;20032;-81
2021/12/31 01:45:43;;;;;;;12.98;5.60;;;;;;;;;;5018219;28;20033;-81
2021/12/31 01:48:22;;;;;;;13.45;5.85;;;;;;;;;;4996688;28;21003;-81
2021/12/31 01:50:52;;;;;;;13.93;5.63;;;;;;;;;;4997952;28;20064;-80
2021/12/31 01:53:19;;;;;;;11.27;5.35;;;;;;;;;;4985322;22;20328;-81
2021/12/31 01:55:45;;;;;;;11.05;5.30;;;;;;;;;;4939279;28;20042;-80
2021/12/31 01:58:12;;;;;;;10.57;4.88;;;;;;;;;;4939657;28;20042;-81
2021/12/31 02:00:39;;;;;;;11.32;5.03;;;;;;;;;;4935457;28;20030;-80
2021/12/31 02:03:06;;;;;;;10.77;4.70;;;;;;;;;;4925170;28;20058;-80
2021/12/31 02:05:35;;;;;;;9.23;4.03;;;;;;;;;;4947443;28;20134;-80
2021/12/31 02:08:02;;;;;;;11.02;4.20;;;;;;;;;;4938305;28;20649;-80
2021/12/31 02:10:28;;;;;;;10.82;4.25;;;;;;;;;;4942036;28;20034;-80
2021/12/31 02:12:55;;;;;;;11.27;4.75;;;;;;;;;;4945351;28;20039;-80
2021/12/31 02:15:30;;;;;;;12.77;5.13;;;;;;;;;;4943035;28;20125;-79
2021/12/31 02:18:10;;;;;;;9.27;4.13;;;;;;;;;;4942112;28;20054;-81
2021/12/31 02:20:44;;;;;;;9.95;4.38;;;;;;;;;;4942680;28;20081;-81
2021/12/31 02:23:15;;;;;;;9.75;3.67;;;;;;;;;;4936800;28;20065;-81
2021/12/31 02:25:41;;;;;;;9.95;3.88;;;;;;;;;;4927069;28;20035;-79
2021/12/31 02:28:12;;;;;;;9.80;3.55;;;;;;;;;;4927321;28;23934;-79
2021/12/31 02:30:39;;;;;;;8.68;3.42;;;;;;;;;;4930890;28;20129;-82
2021/12/31 02:33:09;;;;;;;8.30;3.38;;;;;;;;;;4942861;28;20034;-82
2021/12/31 02:35:37;;;;;;;10.38;4.00;;;;;;;;;;4928724;28;20018;-81
2021/12/31 02:38:06;;;;;;;10.52;4.25;;;;;;;;;;4928649;28;20027;-81
2021/12/31 02:40:41;;;;;;;8.98;3.53;;;;;;;;;;4950052;28;20134;-81
2021/12/31 02:43:30;;;;;;;9.30;3.53;;;;;;;;;;4940996;28;20725;-82
2021/12/31 02:46:04;;;;;;;10.18;4.10;;;;;;;;;;4940037;28;20041;-81
2021/12/31 02:48:32;;;;;;;9.30;3.35;;;;;;;;;;4933955;28;20113;-81
2021/12/31 02:51:19;;;;;;;9.75;3.20;;;;;;;;;;4939614;28;20030;-81
2021/12/31 02:53:54;;;;;;;7.80;2.97;;;;;;;;;;4927650;28;20145;-81
2021/12/31 02:56:24;;;;;;;9.27;3.47;;;;;;;;;;4946185;28;20070;-82
2021/12/31 02:58:52;;;;;;;9.95;3.10;;;;;;;;;;4942097;28;20046;-82
2021/12/31 03:01:19;;;;;;;9.05;3.30;;;;;;;;;;4929629;28;20031;-81
2021/12/31 03:03:46;;;;;;;9.10;3.70;;;;;;;;;;4942826;28;20039;-82
2021/12/31 03:06:16;;;;;;;9.00;3.05;;;;;;;;;;4924662;28;20051;-82
2021/12/31 03:08:45;;;;;;;7.85;2.83;;;;;;;;;;4945841;28;20104;-82
2021/12/31 03:11:13;;;;;;;8.32;3.10;;;;;;;;;;4931396;28;20772;-82
2021/12/31 03:13:41;;;;;;;8.63;3.20;;;;;;;;;;4944387;28;20038;-82
2021/12/31 03:16:13;;;;;;;8.43;2.90;;;;;;;;;;4930357;28;20615;-82
2021/12/31 03:18:42;;;;;;;9.52;3.20;;;;;;;;;;4945972;28;20073;-82
2021/12/31 03:21:20;;;;;;;9.07;3.00;;;;;;;;;;4944071;28;20035;-82
2021/12/31 03:23:54;;;;;;;8.30;2.80;;;;;;;;;;4945664;28;20047;-82
2021/12/31 03:26:30;;;;;;;8.55;2.80;;;;;;;;;;4947911;28;20049;-82
2021/12/31 03:28:58;;;;;;;7.93;3.03;;;;;;;;;;4930402;28;20043;-82
2021/12/31 03:31:26;;;;;;;9.15;3.00;;;;;;;;;;4935813;28;20028;-82
2021/12/31 03:33:55;;;;;;;8.23;2.70;;;;;;;;;;4930734;28;20034;-81
2021/12/31 03:36:23;;;;;;;9.00;2.83;;;;;;;;;;4948478;28;20034;-80
2021/12/31 03:38:51;;;;;;;9.05;3.40;;;;;;;;;;4933083;28;20164;-80
2021/12/31 03:41:20;;;;;;;10.48;4.45;;;;;;;;;;4945216;28;20023;-80
2021/12/31 03:43:47;;;;;;;9.13;3.90;;;;;;;;;;4950519;28;20055;-79
2021/12/31 03:46:16;;;;;;;10.70;4.00;;;;;;;;;;4950196;28;20047;-81
2021/12/31 03:48:45;;;;;;;9.60;3.70;;;;;;;;;;4948191;28;20023;-80
2021/12/31 03:51:14;;;;;;;8.25;3.10;;;;;;;;;;4951762;28;20064;-79
2021/12/31 03:53:43;;;;;;;9.20;2.97;;;;;;;;;;4943798;28;20741;-80
2021/12/31 03:56:12;;;;;;;8.30;2.95;;;;;;;;;;4946319;28;20073;-79
2021/12/31 03:58:39;;;;;;;7.05;2.60;;;;;;;;;;4949656;28;20023;-80
2021/12/31 04:01:07;;;;;;;8.02;2.70;;;;;;;;;;4944137;28;20042;-80
2021/12/31 04:03:36;;;;;;;9.45;2.83;;;;;;;;;;4949444;28;20034;-80
2021/12/31 04:06:02;;;;;;;8.32;2.65;;;;;;;;;;4951321;28;20039;-80
2021/12/31 04:08:29;;;;;;;7.25;2.50;;;;;;;;;;4949738;28;20039;-79
2021/12/31 04:10:57;;;;;;;;;;;;;;;;;;4947879;28;20631;-80
2021/12/31 04:13:24;;;;;;;6.25;2.15;;;;;;;;;;4951764;28;20650;-79
2021/12/31 04:15:51;;;;;;;6.90;2.53;;;;;;;;;;4947026;28;20030;-80
2021/12/31 04:18:18;;;;;;;7.53;2.70;;;;;;;;;;4966187;28;20038;-80
2021/12/31 04:20:49;;;;;;;7.55;2.53;;;;;;;;;;4949844;28;20033;-79
2021/12/31 04:26:15;;;;;;;7.20;2.60;;;;;;;;;;4934358;28;20627;-81
2021/12/31 04:28:45;;;;;;;8.65;2.33;;;;;;;;;;4925050;28;20033;-79
2021/12/31 04:31:13;;;;;;;6.75;2.42;;;;;;;;;;4907752;28;20421;-79
2021/12/31 04:33:41;;;;;;;6.82;2.28;;;;;;;;;;4911149;28;20055;-79
2021/12/31 04:36:11;;;;;;;7.82;2.28;;;;;;;;;;4905767;28;20039;-81
2021/12/31 04:38:51;;;;;;;7.53;2.08;;;;;;;;;;4911787;28;20428;-81
2021/12/31 04:41:18;;;;;;;6.35;1.90;;;;;;;;;;4898120;28;20099;-78
2021/12/31 04:43:46;;;;;;;5.25;1.80;;;;;;;;;;4909930;28;20074;-79
2021/12/31 04:46:14;;;;;;;6.47;1.83;;;;;;;;;;4920926;28;20107;-79
2021/12/31 04:48:40;;;;;;;6.32;1.95;;;;;;;;;;4906705;28;20130;-79
2021/12/31 04:51:07;;;;;;;8.05;2.20;;;;;;;;;;4904908;28;20053;-78
2021/12/31 04:53:36;;;;;;;6.85;2.10;;;;;;;;;;4908990;28;20122;-79
2021/12/31 04:56:03;;;;;;;7.28;2.10;;;;;;;;;;4919950;28;20070;-80
2021/12/31 04:58:31;;;;;;;7.95;2.40;;;;;;;;;;4923503;28;20031;-79
2021/12/31 05:00:58;;;;;;;6.65;1.90;;;;;;;;;;4919857;28;20122;-79
2021/12/31 05:03:28;;;;;;;8.02;2.33;;;;;;;;;;4939692;28;20135;-80
2021/12/31 05:05:56;;;;;;;7.80;2.88;;;;;;;;;;4937614;28;22880;-79
2021/12/31 05:08:24;;;;;;;9.65;3.10;;;;;;;;;;4951151;28;20054;-80
2021/12/31 05:10:52;;;;;;;8.70;3.05;;;;;;;;;;4959645;28;20053;-80
2021/12/31 05:13:20;;;;;;;8.68;2.95;;;;;;;;;;4961274;28;20042;-81
2021/12/31 05:15:52;;;;;;;8.32;3.30;;;;;;;;;;4965763;28;20047;-81
2021/12/31 05:18:18;;;;;;;9.48;3.45;;;;;;;;;;4964064;28;20138;-81
2021/12/31 05:20:45;;;;;;;9.43;3.72;;;;;;;;;;4962904;28;20145;-81
2021/12/31 05:23:13;;;;;;;8.77;3.25;;;;;;;;;;4956851;28;20026;-80
2021/12/31 05:25:42;;;;;;;8.75;3.05;;;;;;;;;;4958126;28;20141;-81
2021/12/31 05:28:09;;;;;;;7.93;2.75;;;;;;;;;;4958178;28;20073;-81
2021/12/31 05:30:36;;;;;;;10.00;3.33;;;;;;;;;;4956767;28;20145;-81
2021/12/31 05:33:05;;;;;;;9.80;2.90;;;;;;;;;;4954220;28;20028;-81
2021/12/31 05:35:31;;;;;;;9.88;3.20;;;;;;;;;;4937018;28;20101;-80
2021/12/31 05:37:58;;;;;;;9.63;3.30;;;;;;;;;;4952614;28;20670;-81
2021/12/31 05:40:27;;;;;;;8.98;3.20;;;;;;;;;;4951164;28;20034;-82
2021/12/31 05:42:54;;;;;;;9.18;3.45;;;;;;;;;;4945061;28;20100;-81
2021/12/31 05:45:21;;;;;;;11.05;3.60;;;;;;;;;;4948248;28;20054;-81
2021/12/31 05:47:50;;;;;;;10.30;3.60;;;;;;;;;;4949233;28;20033;-81
2021/12/31 05:50:27;;;;;;;9.73;3.40;;;;;;;;;;4960198;28;20035;-81
2021/12/31 05:52:59;;;;;;;10.05;3.28;;;;;;;;;;4948113;28;20628;-81
2021/12/31 05:55:32;;;;;;;9.32;3.50;;;;;;;;;;4950291;28;20043;-81
2021/12/31 05:58:02;;;;;;;10.43;3.50;;;;;;;;;;4950549;28;20073;-81
2021/12/31 06:00:29;;;;;;;9.13;3.33;;;;;;;;;;4958341;28;20035;-81
2021/12/31 06:02:57;;;;;;;9.45;3.47;;;;;;;;;;4956346;28;20145;-79
2021/12/31 06:05:27;;;;;;;9.85;3.30;;;;;;;;;;4940947;28;20074;-80
2021/12/31 06:07:57;;;;;;;9.20;3.35;;;;;;;;;;4939446;28;20075;-80
2021/12/31 06:10:26;;;;;;;8.85;2.97;;;;;;;;;;4960038;28;20034;-80
2021/12/31 06:13:00;;;;;;;7.70;2.72;;;;;;;;;;4952563;28;20037;-80
2021/12/31 06:15:28;;;;;;;8.95;2.63;;;;;;;;;;4956516;28;20039;-80
2021/12/31 06:17:59;;;;;;;7.15;2.30;;;;;;;;;;4954826;28;20042;-80
2021/12/31 06:20:28;;;;;;;9.55;2.70;;;;;;;;;;4962174;28;20181;-81
2021/12/31 06:22:59;;;;;;;8.70;2.58;;;;;;;;;;4955430;28;20341;-80
2021/12/31 06:25:27;;;;;;;7.85;2.63;;;;;;;;;;4950096;28;20049;-79
2021/12/31 06:27:54;;;;;;;8.60;2.55;;;;;;;;;;4916345;28;20035;-79
2021/12/31 06:30:22;;;;;;;7.18;2.35;;;;;;;;;;4919282;28;20047;-79
2021/12/31 06:32:52;;;;;;;7.28;2.40;;;;;;;;;;4927708;28;20042;-80
2021/12/31 06:35:20;;;;;;;8.05;2.60;;;;;;;;;;4913646;28;20059;-80
2021/12/31 06:37:51;;;;;;;5.85;2.40;;;;;;;;;;4929469;28;20035;-80
2021/12/31 06:40:18;;;;;;;8.80;2.50;;;;;;;;;;4928768;28;20023;-80
2021/12/31 06:42:47;;;;;;;8.77;2.70;;;;;;;;;;4912587;28;20063;-80
2021/12/31 06:45:16;;;;;;;7.32;2.67;;;;;;;;;;4928253;28;20034;-80
2021/12/31 06:47:42;;;;;;;6.50;2.28;;;;;;;;;;4928996;28;20109;-79
2021/12/31 06:50:10;;;;;;;9.48;2.63;;;;;;;;;;4910563;28;20758;-80
2021/12/31 06:52:38;;;;;;;8.35;2.80;;;;;;;;;;4910587;28;20031;-80
2021/12/31 06:55:07;;;;;;;8.07;2.40;;;;;;;;;;4925179;28;20654;-78
2021/12/31 06:57:34;;;;;;;6.95;2.05;;;;;;;;;;4912163;28;20048;-79
2021/12/31 07:00:05;;;;;;;7.72;2.53;;;;;;;;;;4910411;28;20043;-79
2021/12/31 07:02:33;;;;;;;6.65;2.13;;;;;;;;;;4929494;28;20513;-80
2021/12/31 07:04:59;;;;;;;7.20;2.22;;;;;;;;;;4925009;28;20625;-80
2021/12/31 07:07:28;;;;;;;6.97;2.40;;;;;;;;;;4928895;28;20034;-80
2021/12/31 07:09:56;;;;;;;6.35;2.20;;;;;;;;;;4925752;28;20039;-80
2021/12/31 07:12:22;;;;;;;7.65;2.63;;;;;;;;;;4924849;28;20059;-80
2021/12/31 07:14:54;;;;;;;8.85;2.28;;;;;;;;;;4927657;28;20175;-80
2021/12/31 07:17:21;;;;;;;8.25;2.75;;;;;;;;;;4917294;28;20043;-80
2021/12/31 07:19:51;;;;;;;9.10;2.80;;;;;;;;;;4958373;28;20035;-80
2021/12/31 07:22:18;;;;;;;8.40;3.20;;;;;;;;;;4945318;28;20069;-80
2021/12/31 07:24:45;;;;;;;9.07;3.08;;;;;;;;;;4913495;28;20043;-81
2021/12/31 07:27:14;;;;;;;8.05;2.50;;;;;;;;;;4942567;28;20046;-81
2021/12/31 07:29:43;;;;;;;9.18;2.80;;;;;;;;;;4928696;28;20042;-81
2021/12/31 07:32:12;;;;;;;8.60;2.83;;;;;;;;;;4946708;28;20221;-81
2021/12/31 07:34:41;;;;;;;9.85;3.60;;;;;;;;;;4931191;28;20129;-81
2021/12/31 07:37:10;;;;;;;8.15;3.13;;;;;;;;;;4930561;28;20050;-81
2021/12/31 07:39:45;;;;;;;11.73;3.65;;;;;;;;;;4942662;28;20045;-81
2021/12/31 07:42:34;;;;;;;12.48;4.43;;;;;;;;;;4927903;28;20030;-81
2021/12/31 07:45:04;;;;;;;10.63;4.40;;;;;;;;;;4942712;28;20035;-80
2021/12/31 07:47:32;;;;;;;10.90;4.40;;;;;;;;;;4936712;28;20500;-81
2021/12/31 07:49:59;;;;;;;13.63;4.32;;;;;;;;;;4940977;28;20097;-80
2021/12/31 07:52:25;;;;;;;10.98;4.85;;;;;;;;;;4916922;28;20039;-81
2021/12/31 07:54:52;;;;;;;13.75;7.03;;;;;;;;;;4942197;28;20149;-80
2021/12/31 07:57:21;;;;;;;14.38;7.63;;;;;;;;;;4943816;28;20430;-81
2021/12/31 07:59:54;;;;;;;14.38;7.20;;;;;;;;;;4944095;28;20038;-80
2021/12/31 08:02:20;;;;;;;16.83;8.10;;;;;;;;;;4926370;28;20031;-81
2021/12/31 08:04:46;;;;;;;15.63;8.13;;;;;;;;;;4942987;28;20429;-80
2021/12/31 08:07:12;;;;;;;;;;;;;;;;;;4945066;28;20038;-80
2021/12/31 08:09:41;;;;;;;17.80;8.52;;;;;;;;;;4946640;28;20541;-81
2021/12/31 08:12:07;;;;;;;19.23;8.85;;;;;;;;;;4941941;28;20112;-81
2021/12/31 08:14:37;;;;;;;16.42;7.68;;;;;;;;;;4932349;28;20034;-81
2021/12/31 08:17:05;;;;;;;14.60;6.72;;;;;;;;;;4939999;28;20052;-81
2021/12/31 08:19:35;;;;;;;14.32;6.07;;;;;;;;;;4947352;28;20623;-81
2021/12/31 08:22:03;;;;;;;14.52;5.78;;;;;;;;;;4942198;28;20035;-81
2021/12/31 08:24:30;;;;;;;11.60;5.20;;;;;;;;;;4930241;28;20039;-81
2021/12/31 08:27:00;;;;;;;13.80;4.63;;;;;;;;;;4943317;28;20039;-84
2021/12/31 08:29:29;;;;;;;10.68;4.57;;;;;;;;;;4951235;28;20046;-83
2021/12/31 08:31:58;;;;;;;10.10;4.15;;;;;;;;;;4939810;28;20038;-83
2021/12/31 08:34:25;;;;;;;11.85;4.65;;;;;;;;;;4948999;28;20047;-80
2021/12/31 08:36:52;;;;;;;12.60;4.50;;;;;;;;;;4940674;28;20065;-83
2021/12/31 08:39:21;;;;;;;11.68;4.35;;;;;;;;;;4942896;28;20038;-83
2021/12/31 08:41:49;;;;;;;12.27;5.40;;;;;;;;;;4946419;28;20142;-83
2021/12/31 08:44:19;;;;;;;14.52;5.43;;;;;;;;;;4949051;28;20037;-83
2021/12/31 08:46:48;;;;;;;14.77;5.60;;;;;;;;;;4944269;28;20022;-84
2021/12/31 08:49:24;;;;;;;14.50;7.15;;;;;;;;;;4949649;28;20026;-83
2021/12/31 08:51:54;;;;;;;14.65;7.53;;;;;;;;;;4940591;28;20078;-82
2021/12/31 08:54:20;;;;;;;17.10;9.10;;;;;;;;;;4944141;28;20035;-82
2021/12/31 08:56:46;;;;;;;;;;;;;;;;;;4915095;28;20042;-82
2021/12/31 08:59:13;;;;;;;20.05;10.82;;;;;;;;;;4921564;28;19914;-83
2021/12/31 09:01:40;;;;;;;17.70;10.73;;;;;;;;;;4925390;28;20039;-83
2021/12/31 09:04:09;;;;;;;17.02;9.07;;;;;;;;;;4910663;28;20127;-83
2021/12/31 09:06:35;;;;;;;17.13;9.13;;;;;;;;;;4912093;28;20131;-83
2021/12/31 09:09:04;;;;;;;18.67;9.75;;;;;;;;;;4921561;28;20035;-83
2021/12/31 09:11:32;;;;;;;17.42;8.52;;;;;;;;;;4898729;28;20039;-83
2021/12/31 09:14:00;;;;;;;14.13;7.45;;;;;;;;;;4920136;28;20024;-83
2021/12/31 09:16:30;;;;;;;19.85;11.93;;;;;;;;;;4913103;28;20027;-82
2021/12/31 09:18:56;;;;;;;16.70;9.13;;;;;;;;;;4908025;28;20117;-82
2021/12/31 09:21:26;;;;;;;14.15;7.30;;;;;;;;;;4922388;28;20085;-82
2021/12/31 09:23:54;;;;;;;13.73;6.80;;;;;;;;;;4882498;29;20080;-83
2021/12/31 09:26:25;;;;;;;12.77;6.30;;;;;;;;;;4890520;29;20040;-82
2021/12/31 09:28:51;;;;;;;10.68;5.38;;;;;;;;;;4867568;29;20134;-82
2021/12/31 09:31:19;;;;;;;11.57;5.40;;;;;;;;;;4883222;29;20123;-82
2021/12/31 09:33:52;;;;;;;10.68;5.13;;;;;;;;;;4884043;29;20027;-82
2021/12/31 09:36:21;;;;;;;10.02;5.20;;;;;;;;;;4867136;29;20072;-83
2021/12/31 09:38:48;;;;;;;10.82;5.22;;;;;;;;;;4867629;29;20055;-82
2021/12/31 09:41:14;;;;;;;11.15;5.07;;;;;;;;;;4867140;29;20032;-82
2021/12/31 09:43:46;;;;;;;11.00;5.80;;;;;;;;;;4883402;29;20036;-81
2021/12/31 09:46:16;;;;;;;12.63;5.82;;;;;;;;;;4882770;29;20075;-82
2021/12/31 09:48:42;;;;;;;12.05;5.40;;;;;;;;;;4872546;29;20176;-82
2021/12/31 09:51:11;;;;;;;10.93;4.90;;;;;;;;;;4877368;29;20070;-82
2021/12/31 09:53:41;;;;;;;10.52;4.90;;;;;;;;;;4872512;29;20031;-83
2021/12/31 09:56:10;;;;;;;9.60;4.35;;;;;;;;;;4909772;28;20043;-83
2021/12/31 09:58:37;;;;;;;10.10;3.97;;;;;;;;;;4907816;28;20122;-83
2021/12/31 10:01:07;;;;;;;9.10;3.92;;;;;;;;;;4919873;28;20035;-83
2021/12/31 10:03:35;;;;;;;9.68;3.95;;;;;;;;;;4923259;28;20042;-85
2021/12/31 10:06:10;;;;;;;8.68;4.00;;;;;;;;;;4903402;28;20114;-85
2021/12/31 10:08:43;;;;;;;9.75;4.07;;;;;;;;;;4913863;28;20544;-84
2021/12/31 10:11:19;;;;;;;9.00;4.13;;;;;;;;;;4924977;28;21616;-84
2021/12/31 10:14:01;;;;;;;9.20;3.97;;;;;;;;;;4918467;28;20039;-85
2021/12/31 10:16:39;;;;;;;10.30;4.72;;;;;;;;;;4949733;28;20031;-85
2021/12/31 10:19:20;;;;;;;9.50;4.20;;;;;;;;;;4944592;28;20044;-80
2021/12/31 10:21:53;;;;;;;8.68;3.75;;;;;;;;;;4942324;28;20046;-83
2021/12/31 10:24:20;;;;;;;7.97;3.72;;;;;;;;;;4930492;28;20042;-80
2021/12/31 10:26:47;;;;;;;8.73;3.72;;;;;;;;;;4945474;28;20026;-83
2021/12/31 10:29:15;;;;;;;8.18;3.45;;;;;;;;;;4942517;28;20039;-83
2021/12/31 10:31:45;;;;;;;8.45;3.92;;;;;;;;;;4948722;28;20045;-83
2021/12/31 10:34:36;;;;;;;10.52;3.90;;;;;;;;;;4929043;28;20030;-83
2021/12/31 10:37:15;;;;;;;8.55;3.38;;;;;;;;;;4939708;28;20437;-82
2021/12/31 10:39:44;;;;;;;8.48;3.47;;;;;;;;;;4947627;28;21387;-82
2021/12/31 10:42:14;;;;;;;8.77;3.38;;;;;;;;;;4912254;28;20583;-82
2021/12/31 10:44:51;;;;;;;10.52;3.75;;;;;;;;;;4948096;28;20737;-85
2021/12/31 10:47:37;;;;;;;12.02;5.72;;;;;;;;;;4949158;28;20034;-85
2021/12/31 10:50:12;;;;;;;10.27;6.03;;;;;;;;;;4951231;28;20041;-85
2021/12/31 10:53:10;;;;;;;8.00;3.60;;;;;;;;;;4932478;28;20043;-84
2021/12/31 10:55:41;;;;;;;8.25;3.50;;;;;;;;;;4944196;28;20331;-81
2021/12/31 10:58:10;;;;;;;7.53;3.42;;;;;;;;;;4951112;28;20027;-81
2021/12/31 11:00:50;;;;;;;9.35;3.60;;;;;;;;;;4934155;28;20027;-82
2021/12/31 11:03:25;;;;;;;9.05;4.15;;;;;;;;;;4949835;28;20039;-81
2021/12/31 11:06:14;;;;;;;8.35;3.40;;;;;;;;;;4954989;28;20050;-85
2021/12/31 11:09:06;;;;;;;8.80;3.10;;;;;;;;;;4952899;28;20047;-83
2021/12/31 11:11:38;;;;;;;8.48;3.78;;;;;;;;;;4934981;28;20057;-81
2021/12/31 11:14:06;;;;;;;8.95;3.25;;;;;;;;;;4950463;28;20030;-81
2021/12/31 11:16:38;;;;;;;8.13;4.00;;;;;;;;;;4962122;28;20038;-82
2021/12/31 11:19:05;;;;;;;10.23;5.18;;;;;;;;;;4953433;28;20456;-81
2021/12/31 11:21:32;;;;;;;10.68;5.30;;;;;;;;;;4941694;28;20093;-81
2021/12/31 11:24:20;;;;;;;9.32;4.40;;;;;;;;;;4953661;28;20037;-81
2021/12/31 11:26:49;;;;;;;8.90;4.20;;;;;;;;;;4939887;28;20043;-81
2021/12/31 11:29:19;;;;;;;9.75;4.47;;;;;;;;;;4956479;28;20106;-85
2021/12/31 11:31:47;;;;;;;8.20;3.97;;;;;;;;;;4937959;28;20038;-85
2021/12/31 11:34:15;;;;;;;9.10;4.35;;;;;;;;;;4918306;28;20078;-84
2021/12/31 11:36:56;;;;;;;8.15;4.13;;;;;;;;;;4954740;28;20022;-84
2021/12/31 11:39:38;;;;;;;11.57;3.92;;;;;;;;;;4956385;28;20573;-84
2021/12/31 11:42:05;;;;;;;12.35;4.00;;;;;;;;;;4904883;28;20076;-84
2021/12/31 11:44:34;;;;;;;8.98;3.03;;;;;;;;;;4952704;28;20492;-80
2021/12/31 11:47:22;;;;;;;9.30;3.42;;;;;;;;;;4949724;28;20031;-81
2021/12/31 11:49:54;;;;;;;7.45;2.88;;;;;;;;;;4915647;28;20035;-82
2021/12/31 11:52:21;;;;;;;7.97;2.65;;;;;;;;;;4913868;28;20043;-82
2021/12/31 11:55:10;;;;;;;7.20;2.70;;;;;;;;;;4950741;28;20122;-82
2021/12/31 11:57:38;;;;;;;9.00;3.10;;;;;;;;;;4922721;28;20059;-84
2021/12/31 12:00:07;;;;;;;6.50;2.72;;;;;;;;;;4940417;28;20030;-85
2021/12/31 12:02:39;;;;;;;8.35;3.60;;;;;;;;;;4947520;28;20889;-85
2021/12/31 12:05:14;;;;;;;8.07;3.60;;;;;;;;;;4943685;28;20039;-84
2021/12/31 12:07:52;;;;;;;8.00;3.40;;;;;;;;;;4946556;28;20066;-85
2021/12/31 12:10:22;;;;;;;8.27;2.93;;;;;;;;;;4950795;28;20038;-84
2021/12/31 12:12:50;;;;;;;8.32;2.92;;;;;;;;;;4950676;28;20864;-85
2021/12/31 12:15:29;;;;;;;9.20;3.70;;;;;;;;;;4932961;28;20077;-85
2021/12/31 12:17:59;;;;;;;8.48;3.38;;;;;;;;;;4910063;28;20073;-85
2021/12/31 12:20:50;;;;;;;8.30;3.22;;;;;;;;;;4949431;28;20109;-87
2021/12/31 12:23:19;;;;;;;8.95;3.50;;;;;;;;;;4945694;28;20035;-88
2021/12/31 12:25:49;;;;;;;8.65;3.63;;;;;;;;;;4946364;28;20093;-88
2021/12/31 12:28:18;;;;;;;8.25;3.63;;;;;;;;;;4946977;28;20531;-88
2021/12/31 12:30:53;;;;;;;8.52;3.50;;;;;;;;;;4949619;28;20381;-88
2021/12/31 12:33:23;;;;;;;9.07;3.97;;;;;;;;;;4936311;28;20487;-87
2021/12/31 12:35:55;;;;;;;8.57;3.83;;;;;;;;;;4952176;28;20125;-87
2021/12/31 12:38:26;;;;;;;8.15;3.60;;;;;;;;;;4932222;28;20287;-87
2021/12/31 12:40:57;;;;;;;8.73;3.30;;;;;;;;;;4943127;28;20031;-86
2021/12/31 12:43:37;;;;;;;7.90;3.40;;;;;;;;;;4934243;28;20030;-86
2021/12/31 12:46:13;;;;;;;9.18;4.78;;;;;;;;;;4925468;28;20030;-87
2021/12/31 12:48:51;;;;;;;10.55;6.35;;;;;;;;;;4948711;28;20038;-87
2021/12/31 12:51:29;;;;;;;10.75;6.07;;;;;;;;;;4921552;28;20169;-88
2021/12/31 12:53:57;;;;;;;10.50;6.72;;;;;;;;;;4947000;28;20042;-87
2021/12/31 12:56:25;;;;;;;11.82;7.10;;;;;;;;;;4946208;28;20053;-86
2021/12/31 12:58:57;;;;;;;12.63;8.00;;;;;;;;;;4951867;28;20030;-85
2021/12/31 13:01:47;;;;;;;11.10;7.28;;;;;;;;;;4948112;28;20043;-86
2021/12/31 13:04:27;;;;;;;11.75;6.88;;;;;;;;;;4949342;28;20039;-86
2021/12/31 13:07:02;;;;;;;12.20;7.65;;;;;;;;;;4959967;28;20034;-85
2021/12/31 13:09:36;;;;;;;11.77;7.55;;;;;;;;;;4947334;28;20054;-84
2021/12/31 13:12:04;;;;;;;12.32;7.50;;;;;;;;;;4923808;28;20110;-83
2021/12/31 13:14:33;;;;;;;10.48;6.63;;;;;;;;;;4928524;28;20134;-85
2021/12/31 13:17:00;;;;;;;10.02;6.07;;;;;;;;;;4907580;28;20031;-84
2021/12/31 13:19:30;;;;;;;9.57;5.55;;;;;;;;;;4926856;28;20613;-86
2021/12/31 13:22:03;;;;;;;9.43;5.40;;;;;;;;;;4910515;28;20039;-84
2021/12/31 13:24:30;;;;;;;10.27;5.60;;;;;;;;;;4905067;28;20058;-84
2021/12/31 13:27:05;;;;;;;8.77;5.00;;;;;;;;;;4910858;28;20078;-84
2021/12/31 13:29:42;;;;;;;9.00;5.18;;;;;;;;;;4935980;28;20039;-84
2021/12/31 13:32:12;;;;;;;9.20;5.10;;;;;;;;;;4934740;28;20235;-84
2021/12/31 13:34:44;;;;;;;9.43;4.80;;;;;;;;;;4940647;28;20034;-84
2021/12/31 13:37:40;;;;;;;8.95;4.70;;;;;;;;;;4933146;28;20043;-84
2021/12/31 13:40:09;;;;;;;9.05;4.90;;;;;;;;;;4910309;28;20134;-84
2021/12/31 13:42:39;;;;;;;9.18;4.90;;;;;;;;;;4913468;28;20031;-84
2021/12/31 13:45:07;;;;;;;9.68;5.43;;;;;;;;;;4924554;28;20137;-84
2021/12/31 13:47:34;;;;;;;9.93;5.78;;;;;;;;;;4926025;28;20849;-83
2021/12/31 13:50:09;;;;;;;10.38;6.18;;;;;;;;;;4923129;28;20088;-83
2021/12/31 13:52:46;;;;;;;11.13;6.45;;;;;;;;;;4928625;28;20162;-83
2021/12/31 13:55:18;;;;;;;9.25;4.97;;;;;;;;;;4906548;28;20043;-83
2021/12/31 13:58:10;;;;;;;9.02;4.32;;;;;;;;;;4925388;28;20662;-82
2021/12/31 14:00:41;;;;;;;10.98;5.75;;;;;;;;;;4931164;28;20380;-82
2021/12/31 14:03:27;;;;;;;8.75;4.88;;;;;;;;;;4936803;28;20045;-82
2021/12/31 14:06:04;;;;;;;10.40;6.40;;;;;;;;;;4940652;28;20034;-83
2021/12/31 14:11:06;;;;;;;9.55;5.60;;;;;;;;;;4960734;28;20053;-86
2021/12/31 14:13:41;;;;;;;10.18;6.00;;;;;;;;;;4944077;28;20030;-86
2021/12/31 14:16:08;;;;;;;10.02;5.63;;;;;;;;;;4946914;28;20027;-85
2021/12/31 14:18:35;;;;;;;9.30;5.10;;;;;;;;;;4947201;28;20038;-80
2021/12/31 14:21:03;;;;;;;9.68;5.15;;;;;;;;;;4943158;28;20039;-80
2021/12/31 14:23:30;;;;;;;10.05;5.97;;;;;;;;;;4951304;28;20089;-80
2021/12/31 14:25:57;;;;;;;10.88;5.43;;;;;;;;;;4941808;28;20489;-80
2021/12/31 14:28:24;;;;;;;8.88;5.05;;;;;;;;;;4943770;28;20031;-81
2021/12/31 14:30:51;;;;;;;10.35;4.90;;;;;;;;;;4962433;28;20123;-81
2021/12/31 14:33:19;;;;;;;9.38;5.10;;;;;;;;;;4947019;28;20081;-81
2021/12/31 14:35:50;;;;;;;10.18;5.95;;;;;;;;;;4946248;28;20058;-82
2021/12/31 14:38:21;;;;;;;10.63;5.80;;;;;;;;;;4951250;28;20130;-82
2021/12/31 14:40:51;;;;;;;10.85;6.57;;;;;;;;;;4962900;28;20037;-83
2021/12/31 14:43:19;;;;;;;11.20;7.18;;;;;;;;;;4946480;28;20051;-83
2021/12/31 14:45:47;;;;;;;10.60;6.72;;;;;;;;;;4952366;28;20889;-83
2021/12/31 14:48:13;;;;;;;11.77;7.20;;;;;;;;;;4947641;28;20284;-83
2021/12/31 14:50:43;;;;;;;10.82;6.80;;;;;;;;;;4948852;28;20835;-84
2021/12/31 14:53:10;;;;;;;12.20;7.80;;;;;;;;;;4947089;28;21893;-83
2021/12/31 14:55:37;;;;;;;12.82;9.13;;;;;;;;;;4946862;28;20074;-83
2021/12/31 14:58:05;;;;;;;10.95;7.00;;;;;;;;;;4946163;28;20031;-83
2021/12/31 15:00:32;;;;;;;11.73;7.47;;;;;;;;;;4954021;28;20019;-83
2021/12/31 15:02:58;;;;;;;11.27;7.57;;;;;;;;;;4948741;28;20112;-87
2021/12/31 15:05:25;;;;;;;11.75;7.50;;;;;;;;;;4953907;28;20030;-86